createdAt,value
2019-05-23T00:01:25.989Z,15.33
2019-05-23T00:04:17.232Z,15.03
2019-05-23T00:06:47.364Z,15.03
2019-05-23T00:09:17.104Z,15.63
2019-05-23T00:11:49.253Z,14.40
2019-05-23T00:14:43.601Z,13.97
2019-05-23T00:17:18.677Z,13.60
2019-05-23T00:19:50.440Z,13.87
2019-05-23T00:22:20.244Z,14.60
2019-05-23T00:24:58.851Z,14.40
2019-05-23T00:27:29.777Z,14.20
2019-05-23T00:30:01.189Z,13.13
2019-05-23T00:32:57.095Z,12.37
2019-05-23T00:35:28.077Z,13.97
2019-05-23T00:37:57.249Z,12.73
2019-05-23T00:40:28.333Z,11.73
2019-05-23T00:43:07.025Z,13.20
2019-05-23T00:45:35.949Z,12.87
2019-05-23T00:48:06.147Z,13.23
2019-05-23T00:50:35.803Z,12.87
2019-05-23T00:53:14.934Z,12.53
2019-05-23T00:55:44.701Z,11.90
2019-05-23T00:58:14.970Z,12.97
2019-05-23T01:00:44.307Z,13.57
2019-05-23T01:06:21.206Z,13.73
2019-05-23T01:08:51.706Z,14.90
2019-05-23T01:11:21.504Z,17.17
2019-05-23T01:14:00.966Z,16.47
2019-05-23T01:16:31.521Z,15.17
2019-05-23T01:19:01.189Z,16.10
2019-05-23T01:21:47.470Z,16.23
2019-05-23T01:24:59.357Z,15.87
2019-05-23T01:27:30.065Z,15.13
2019-05-23T01:29:59.578Z,15.13
2019-05-23T01:32:48.628Z,14.37
2019-05-23T01:35:31.567Z,16.03
2019-05-23T01:38:04.171Z,13.90
2019-05-23T01:40:36.064Z,13.87
2019-05-23T01:43:05.502Z,15.03
2019-05-23T01:45:56.393Z,15.10
2019-05-23T01:48:25.402Z,15.83
2019-05-23T01:50:54.524Z,14.27
2019-05-23T01:53:57.766Z,14.53
2019-05-23T01:56:27.182Z,14.57
2019-05-23T01:58:56.471Z,14.57
2019-05-23T02:01:25.490Z,14.57
2019-05-23T02:06:41.594Z,16.17
2019-05-23T02:09:12.258Z,17.07
2019-05-23T02:11:41.889Z,16.10
2019-05-23T02:14:24.705Z,17.70
2019-05-23T02:16:58.129Z,15.87
2019-05-23T02:19:28.036Z,16.80
2019-05-23T02:21:57.483Z,15.60
2019-05-23T02:27:14.861Z,15.53
2019-05-23T02:29:44.654Z,15.80
2019-05-23T02:32:15.071Z,17.47
2019-05-23T02:34:56.785Z,16.77
2019-05-23T02:37:55.197Z,17.20
2019-05-23T02:40:40.867Z,17.17
2019-05-23T02:43:14.629Z,17.20
2019-05-23T02:45:47.739Z,16.50
2019-05-23T02:48:21.734Z,15.43
2019-05-23T02:50:55.534Z,15.40
2019-05-23T02:53:29.368Z,14.27
2019-05-23T02:56:11.894Z,13.77
2019-05-23T02:59:19.128Z,15.30
2019-05-23T03:02:18.580Z,14.60
2019-05-23T03:04:58.740Z,14.97
2019-05-23T03:10:09.209Z,17.20
2019-05-23T03:12:38.941Z,18.33
2019-05-23T03:15:19.322Z,15.47
2019-05-23T03:17:52.633Z,15.73
2019-05-23T03:20:21.876Z,16.37
2019-05-23T03:23:02.002Z,15.73
2019-05-23T03:26:19.859Z,15.93
2019-05-23T03:28:49.447Z,16.40
2019-05-23T03:31:32.433Z,16.53
2019-05-23T03:34:01.470Z,18.10
2019-05-23T03:36:40.705Z,18.23
2019-05-23T03:39:11.345Z,18.07
2019-05-23T03:41:42.459Z,16.33
2019-05-23T03:44:26.811Z,16.87
2019-05-23T03:46:57.085Z,17.73
2019-05-23T03:49:28.116Z,17.07
2019-05-23T03:52:08.175Z,16.40
2019-05-23T03:54:37.271Z,16.73
2019-05-23T03:57:09.309Z,15.57
2019-05-23T03:59:40.373Z,16.73
2019-05-23T04:02:20.743Z,16.20
2019-05-23T04:04:50.608Z,17.20
2019-05-23T04:07:21.351Z,16.33
2019-05-23T04:09:50.302Z,16.67
2019-05-23T04:12:29.022Z,15.67
2019-05-23T04:14:58.071Z,23.43
2019-05-23T04:17:27.129Z,22.97
2019-05-23T04:19:56.483Z,17.37
2019-05-23T04:22:34.368Z,15.77
2019-05-23T04:25:04.442Z,12.53
2019-05-23T04:27:33.626Z,12.60
2019-05-23T04:30:06.749Z,11.70
2019-05-23T04:35:20.053Z,12.90
2019-05-23T04:37:57.112Z,13.63
2019-05-23T04:40:27.983Z,12.83
2019-05-23T04:43:06.097Z,14.20
2019-05-23T04:45:36.615Z,13.40
2019-05-23T04:48:06.142Z,13.17
2019-05-23T04:50:36.354Z,12.70
2019-05-23T04:53:17.682Z,13.37
2019-05-23T04:55:47.338Z,13.50
2019-05-23T04:58:17.496Z,13.00
2019-05-23T05:00:46.673Z,13.10
2019-05-23T05:03:27.674Z,13.63
2019-05-23T05:05:56.821Z,13.73
2019-05-23T05:08:28.859Z,13.77
2019-05-23T05:10:59.055Z,14.47
2019-05-23T05:13:36.927Z,14.87
2019-05-23T05:16:06.112Z,15.20
2019-05-23T05:18:36.265Z,15.83
2019-05-23T05:21:05.496Z,15.10
2019-05-23T05:23:43.331Z,15.27
2019-05-23T05:26:18.941Z,15.47
2019-05-23T05:28:49.779Z,15.43
2019-05-23T05:31:20.883Z,15.60
2019-05-23T05:36:34.893Z,15.03
2019-05-23T05:39:12.790Z,15.33
2019-05-23T05:41:49.693Z,16.30
2019-05-23T05:45:08.041Z,14.33
2019-05-23T05:48:50.481Z,14.77
2019-05-23T05:54:20.166Z,15.80
2019-05-23T05:56:49.093Z,15.10
2019-05-23T05:59:18.402Z,14.77
2019-05-23T06:02:11.086Z,14.50
2019-05-23T06:04:49.220Z,16.37
2019-05-23T06:07:33.289Z,16.63
2019-05-23T06:10:04.863Z,15.83
2019-05-23T06:12:34.427Z,16.57
2019-05-23T06:15:12.375Z,14.47
2019-05-23T06:17:41.548Z,15.90
2019-05-23T06:20:14.135Z,16.67
2019-05-23T06:22:44.006Z,15.73
2019-05-23T06:25:22.500Z,14.87
2019-05-23T06:27:51.621Z,14.80
2019-05-23T06:30:22.419Z,15.33
2019-05-23T06:32:52.088Z,14.77
2019-05-23T06:38:07.586Z,14.10
2019-05-23T06:40:37.731Z,14.40
2019-05-23T06:43:09.980Z,15.80
2019-05-23T06:45:48.743Z,15.27
2019-05-23T06:48:18.024Z,15.03
2019-05-23T06:50:47.180Z,14.93
2019-05-23T06:53:16.431Z,14.80
2019-05-23T18:19:09.320Z,2.97
2019-05-23T18:21:38.356Z,4.07
2019-05-23T18:24:08.972Z,3.37
2019-05-23T18:29:22.069Z,2.93
2019-05-23T18:31:52.039Z,2.83
2019-05-23T18:34:22.323Z,3.17
2019-05-23T18:37:01.785Z,3.17
2019-05-23T18:39:32.471Z,3.50
2019-05-23T18:42:01.651Z,3.07
2019-05-23T18:44:30.625Z,3.17
2019-05-23T18:47:14.575Z,3.17
2019-05-23T18:49:44.282Z,2.83
2019-05-23T18:52:13.584Z,3.00
2019-05-23T18:54:45.391Z,3.00
2019-05-23T18:57:25.771Z,3.50
2019-05-23T18:59:55.002Z,3.03
2019-05-23T19:02:25.701Z,3.07
2019-05-23T19:04:57.277Z,3.33
2019-05-23T19:07:35.700Z,3.27
2019-05-23T19:10:06.444Z,3.60
2019-05-23T19:12:35.833Z,3.00
2019-05-23T19:15:05.529Z,3.73
2019-05-23T19:17:43.489Z,3.40
2019-05-23T19:20:16.898Z,3.33
2019-05-23T19:22:46.581Z,3.53
2019-05-23T19:25:18.106Z,3.20
2019-05-23T19:27:59.297Z,3.60
2019-05-23T19:30:28.683Z,3.23
2019-05-23T19:32:59.198Z,3.87
2019-05-23T19:35:28.648Z,3.80
2019-05-23T19:38:06.775Z,3.80
2019-05-23T19:40:36.554Z,4.30
2019-05-23T19:43:06.708Z,4.37
2019-05-23T19:45:36.527Z,5.30
2019-05-23T19:48:20.122Z,3.67
2019-05-23T19:50:51.756Z,3.90
2019-05-23T19:53:21.409Z,3.50
2019-05-23T19:55:54.450Z,3.60
2019-05-23T19:58:35.016Z,3.60
2019-05-23T20:01:05.297Z,3.37
2019-05-23T20:03:36.543Z,3.67
2019-05-23T20:06:10.921Z,3.70
2019-05-23T20:08:49.853Z,3.30
2019-05-23T20:11:19.461Z,3.07
2019-05-23T20:13:51.794Z,3.23
2019-05-23T20:16:20.862Z,3.80
2019-05-23T20:18:59.539Z,3.33
2019-05-23T20:21:28.910Z,3.47
2019-05-23T20:23:59.785Z,3.60
2019-05-23T20:26:28.788Z,4.00
2019-05-23T20:31:49.729Z,4.13
2019-05-23T20:34:19.573Z,3.53
2019-05-23T20:36:51.316Z,3.67
2019-05-23T20:39:30.319Z,3.80
2019-05-23T20:42:10.980Z,3.40
2019-05-23T20:44:30.889Z,3.13
2019-05-23T20:47:00.456Z,3.03
2019-05-23T20:49:39.003Z,3.77
2019-05-23T20:52:09.098Z,4.10
2019-05-23T20:54:38.060Z,3.40
2019-05-23T20:57:07.439Z,3.80
2019-05-23T20:59:46.575Z,3.90
2019-05-23T21:02:15.871Z,3.17
2019-05-23T21:04:44.950Z,4.10
2019-05-23T21:07:14.645Z,3.83
2019-05-23T21:09:52.615Z,4.10
2019-05-23T21:12:30.196Z,4.17
2019-05-23T21:14:52.928Z,3.80
2019-05-23T21:17:21.816Z,4.13
2019-05-23T21:20:00.029Z,4.10
2019-05-23T21:22:29.385Z,4.93
2019-05-23T21:25:00.661Z,4.60
2019-05-23T21:27:29.972Z,4.40
2019-05-23T21:30:08.536Z,4.53
2019-05-23T21:32:38.835Z,5.00
2019-05-23T21:35:08.698Z,5.33
2019-05-23T21:37:37.718Z,5.17
2019-05-23T21:40:19.172Z,5.40
2019-05-23T21:42:49.263Z,5.60
2019-05-23T21:45:21.169Z,5.87
2019-05-23T21:47:50.167Z,6.33
2019-05-23T21:50:31.382Z,5.50
2019-05-23T21:53:00.760Z,5.30
2019-05-23T21:55:36.728Z,5.30
2019-05-23T21:58:06.106Z,5.57
2019-05-23T22:04:27.564Z,6.03
2019-05-23T22:07:04.198Z,6.00
2019-05-23T22:09:42.375Z,6.07
2019-05-23T22:12:15.136Z,6.67
2019-05-23T22:14:44.255Z,5.40
2019-05-23T22:17:13.507Z,5.50
2019-05-23T22:19:43.564Z,5.83
2019-05-23T22:22:13.002Z,5.73
2019-05-23T22:24:44.976Z,5.93
2019-05-23T22:27:14.351Z,5.97
2019-05-23T22:29:52.445Z,6.17
2019-05-23T22:32:23.076Z,7.27
2019-05-23T22:34:59.106Z,7.13
2019-05-23T22:37:29.692Z,7.03
2019-05-23T22:40:08.196Z,7.60
2019-05-23T22:42:37.507Z,6.93
2019-05-23T22:45:11.427Z,6.23
2019-05-23T22:47:40.363Z,6.97
2019-05-23T22:50:21.983Z,7.10
2019-05-23T22:52:50.866Z,7.03
2019-05-23T22:55:20.146Z,7.63
2019-05-23T22:57:49.365Z,7.40
2019-05-23T23:00:33.716Z,6.67
2019-05-23T23:03:03.468Z,7.97
2019-05-23T23:05:32.770Z,7.40
2019-05-23T23:08:01.996Z,7.40
2019-05-23T23:10:52.461Z,7.67
2019-05-23T23:13:37.708Z,7.80
2019-05-23T23:15:52.825Z,9.00
2019-05-23T23:18:22.004Z,8.23
2019-05-23T23:20:59.793Z,8.47
2019-05-23T23:23:28.758Z,8.50
2019-05-23T23:25:57.848Z,8.90
2019-05-23T23:28:26.831Z,8.47
2019-05-23T23:33:40.081Z,8.47
2019-05-23T23:36:08.958Z,8.27
2019-05-23T23:38:37.869Z,8.63
2019-05-23T23:41:15.917Z,8.77
2019-05-23T23:43:58.826Z,8.60
2019-05-23T23:46:33.884Z,8.43
2019-05-23T23:49:20.529Z,9.03
2019-05-23T23:52:16.221Z,8.17
2019-05-23T23:55:06.009Z,8.90
2019-05-23T23:57:52.873Z,8.93
